Time;durP1;ratioP1;P1;durP2;ratioP2;P2;SDS_P1;SDS_P2;PMS_P1;PMS_P2;Temp;Humidity;BMP_temperature;BMP_pressure;BME280_temperature;BME280_humidity;BME280_pressure;Samples;Min_cycle;Max_cycle;Signal;HPM_P1;HPM_P2
2022/12/09 00:02:11;;;;;;;6.20;2.90;;;;;;;;;;5114160;28;20043;-68
2022/12/09 00:04:37;;;;;;;6.28;3.22;;;;;;;;;;5115563;28;20032;-67
2022/12/09 00:07:03;;;;;;;7.32;3.38;;;;;;;;;;5113736;28;20551;-67
2022/12/09 00:09:29;;;;;;;5.40;2.75;;;;;;;;;;5115011;28;20122;-68
2022/12/09 00:11:55;;;;;;;8.40;3.75;;;;;;;;;;5114691;28;20110;-67
2022/12/09 00:14:21;;;;;;;7.05;3.00;;;;;;;;;;5113543;28;20082;-67
2022/12/09 00:16:47;;;;;;;5.60;2.95;;;;;;;;;;5115050;28;20389;-67
2022/12/09 00:19:13;;;;;;;5.53;3.10;;;;;;;;;;5113440;28;20043;-67
2022/12/09 00:21:39;;;;;;;6.45;3.30;;;;;;;;;;5115037;28;20053;-67
2022/12/09 00:24:06;;;;;;;6.10;2.97;;;;;;;;;;5113420;28;20459;-69
2022/12/09 00:26:32;;;;;;;5.93;3.40;;;;;;;;;;5114878;28;20170;-67
2022/12/09 00:28:58;;;;;;;5.35;2.33;;;;;;;;;;5114608;28;20052;-67
2022/12/09 00:31:30;;;;;;;5.93;3.17;;;;;;;;;;5114492;28;20040;-67
2022/12/09 00:33:57;;;;;;;6.65;3.10;;;;;;;;;;5114571;28;20039;-67
2022/12/09 00:36:23;;;;;;;5.72;2.72;;;;;;;;;;5114747;28;20466;-67
2022/12/09 00:38:50;;;;;;;8.32;3.50;;;;;;;;;;5113214;28;20054;-67
2022/12/09 00:41:16;;;;;;;7.15;3.42;;;;;;;;;;5114573;28;20065;-67
2022/12/09 00:43:42;;;;;;;8.23;3.25;;;;;;;;;;5113014;28;20051;-68
2022/12/09 00:46:09;;;;;;;6.55;3.05;;;;;;;;;;5114136;28;20055;-67
2022/12/09 00:48:37;;;;;;;8.18;3.30;;;;;;;;;;5112858;28;20450;-67
2022/12/09 00:51:03;;;;;;;7.57;4.28;;;;;;;;;;5113080;28;20047;-67
2022/12/09 00:53:29;;;;;;;9.77;3.85;;;;;;;;;;5112831;28;20039;-67
2022/12/09 00:55:55;;;;;;;8.93;3.67;;;;;;;;;;5112676;28;20075;-67
2022/12/09 00:58:21;;;;;;;8.57;3.88;;;;;;;;;;5114417;28;20592;-67
2022/12/09 01:00:47;;;;;;;8.70;3.45;;;;;;;;;;5112926;28;20043;-67
2022/12/09 01:03:14;;;;;;;8.30;3.90;;;;;;;;;;5113159;28;20075;-67
2022/12/09 01:05:41;;;;;;;11.40;3.65;;;;;;;;;;5113928;28;20114;-67
2022/12/09 01:08:07;;;;;;;11.55;3.65;;;;;;;;;;5113768;28;20047;-67
2022/12/09 01:10:33;;;;;;;9.52;4.35;;;;;;;;;;5112396;28;20039;-67
2022/12/09 01:12:59;;;;;;;7.32;3.70;;;;;;;;;;5113978;28;20055;-67
2022/12/09 01:15:25;;;;;;;9.63;4.00;;;;;;;;;;5114012;28;20058;-68
2022/12/09 01:17:51;;;;;;;5.50;2.95;;;;;;;;;;5113616;28;20127;-68
2022/12/09 01:20:17;;;;;;;7.43;3.60;;;;;;;;;;5113896;28;20085;-67
2022/12/09 01:22:43;;;;;;;9.70;2.85;;;0.10;99.90;;;;;;5112113;28;20039;-67
2022/12/09 01:25:09;;;;;;;6.72;3.88;;;0.00;99.90;;;;;;5112858;28;20039;-68
2022/12/09 01:27:34;;;;;;;6.47;3.25;;;-0.10;99.90;;;;;;5112412;28;20055;-67
2022/12/09 01:30:00;;;;;;;6.05;3.58;;;-0.10;99.90;;;;;;5095482;28;20028;-67
2022/12/09 01:32:26;;;;;;;6.95;3.15;;;-0.10;99.90;;;;;;5112472;28;20035;-67
2022/12/09 01:34:51;;;;;;;6.00;3.30;;;-0.20;99.90;;;;;;5112415;28;20046;-68
2022/12/09 01:37:17;;;;;;;7.05;3.53;;;-0.10;99.90;;;;;;5146469;27;20050;-67
2022/12/09 01:39:42;;;;;;;6.55;3.53;;;0.00;99.90;;;;;;5113653;28;20043;-67
2022/12/09 01:42:24;;;;;;;8.48;3.50;;;0.10;99.90;;;;;;5113158;28;20475;-67
2022/12/09 01:45:20;;;;;;;6.57;3.53;;;0.10;99.90;;;;;;5113184;27;20391;-68
2022/12/09 01:48:02;;;;;;;8.77;3.72;;;0.20;99.90;;;;;;5112165;28;20075;-69
2022/12/09 01:50:28;;;;;;;9.43;4.15;;;0.20;99.90;;;;;;5113151;28;20049;-67
2022/12/09 01:52:54;;;;;;;8.85;4.43;;;0.20;99.90;;;;;;5113398;28;20047;-67
2022/12/09 01:55:20;;;;;;;9.95;3.72;;;0.20;99.90;;;;;;5113368;28;20031;-67
2022/12/09 01:57:46;;;;;;;7.78;3.92;;;0.10;99.90;;;;;;5113305;28;20039;-67
2022/12/09 02:00:12;;;;;;;7.45;3.67;;;0.40;99.90;;;;;;5111657;28;20538;-67
2022/12/09 02:02:40;;;;;;;10.52;3.67;;;0.40;99.90;;;;;;5112080;28;20559;-67
2022/12/09 02:05:06;;;;;;;6.40;3.83;;;0.30;99.90;;;;;;5113325;28;20047;-67
2022/12/09 02:07:32;;;;;;;7.30;3.42;;;0.40;99.90;;;;;;5111691;28;20047;-67
2022/12/09 02:09:58;;;;;;;6.97;3.58;;;0.40;99.90;;;;;;5113156;28;20043;-67
2022/12/09 02:12:44;;;;;;;7.05;3.10;;;0.50;99.90;;;;;;5113231;28;20528;-67
2022/12/09 02:15:19;;;;;;;8.25;3.40;;;0.50;99.90;;;;;;5113401;28;20039;-67
2022/12/09 02:17:53;;;;;;;8.23;4.05;;;0.50;99.90;;;;;;5112294;28;20055;-67
2022/12/09 02:20:46;;;;;;;7.93;3.38;;;0.50;99.90;;;;;;5111961;28;20547;-67
2022/12/09 02:23:38;;;;;;;11.60;4.55;;;0.50;99.90;;;;;;5111831;28;20052;-67
2022/12/09 02:26:40;;;;;;;7.03;3.50;;;0.50;99.90;;;;;;5113330;28;20401;-67
2022/12/09 02:29:24;;;;;;;;;;;0.50;99.90;;;;;;5095805;28;20040;-67
2022/12/09 02:32:29;;;;;;;7.72;3.97;;;0.50;99.90;;;;;;5111606;28;19938;-67
2022/12/09 02:35:00;;;;;;;7.40;3.78;;;0.40;99.90;;;;;;5112073;28;20405;-67
2022/12/09 02:37:37;;;;;;;11.15;4.63;;;0.60;99.90;;;;;;5115698;28;20047;-67
2022/12/09 02:40:10;;;;;;;9.50;4.15;;;0.50;99.90;;;;;;5117310;28;20048;-66
2022/12/09 02:42:37;;;;;;;8.68;4.03;;;0.40;99.90;;;;;;5117169;28;20036;-67
2022/12/09 02:45:06;;;;;;;11.90;4.18;;;0.40;99.90;;;;;;5116717;28;20060;-66
2022/12/09 02:47:37;;;;;;;12.48;5.20;;;0.40;99.90;;;;;;5116785;28;20097;-67
2022/12/09 02:50:11;;;;;;;10.90;3.83;;;0.30;99.90;;;;;;5115801;28;20062;-67
2022/12/09 02:52:38;;;;;;;9.57;4.88;;;0.40;99.90;;;;;;5117074;28;20475;-67
2022/12/09 02:55:06;;;;;;;7.68;4.30;;;0.40;99.90;;;;;;5115709;28;20043;-67
2022/12/09 02:57:34;;;;;;;9.38;4.85;;;0.40;99.90;;;;;;5116879;28;20067;-67
2022/12/09 03:00:00;;;;;;;8.18;4.32;;;0.30;99.90;;;;;;5098354;28;20152;-67
2022/12/09 03:02:37;;;;;;;8.23;3.60;;;0.40;99.90;;;;;;5116860;28;20039;-67
2022/12/09 03:05:17;;;;;;;9.75;4.30;;;0.20;99.90;;;;;;5115261;28;20122;-67
2022/12/09 03:07:55;;;;;;;10.90;5.00;;;0.30;99.90;;;;;;5149493;27;20052;-67
2022/12/09 03:10:31;;;;;;;10.00;4.32;;;0.30;99.90;;;;;;5116584;28;20270;-69
2022/12/09 03:13:09;;;;;;;10.15;4.13;;;0.30;99.90;;;;;;5116659;28;20039;-67
2022/12/09 03:15:38;;;;;;;8.98;3.67;;;0.30;99.90;;;;;;5115041;28;20402;-67
2022/12/09 03:18:09;;;;;;;7.57;4.20;;;0.30;99.90;;;;;;5114966;28;20070;-67
2022/12/09 03:20:39;;;;;;;10.20;4.22;;;0.30;99.90;;;;;;5116538;27;20035;-67
2022/12/09 03:23:07;;;;;;;8.57;3.83;;;0.30;99.90;;;;;;5115181;28;20512;-67
2022/12/09 03:25:39;;;;;;;6.70;3.63;;;0.30;99.90;;;;;;5116507;28;20398;-67
2022/12/09 03:28:09;;;;;;;12.27;4.43;;;0.20;99.90;;;;;;5115966;28;20083;-67
2022/12/09 03:30:40;;;;;;;8.55;4.07;;;0.30;99.90;;;;;;5116121;27;20031;-67
2022/12/09 03:33:07;;;;;;;10.23;4.88;;;0.30;99.90;;;;;;5115759;28;20039;-66
2022/12/09 03:35:39;;;;;;;12.48;4.32;;;0.30;99.90;;;;;;5114389;28;20035;-67
2022/12/09 03:38:09;;;;;;;11.48;4.60;;;0.30;99.90;;;;;;5115641;28;20394;-67
2022/12/09 03:40:36;;;;;;;13.98;5.18;;;0.30;99.90;;;;;;5115932;28;20035;-67
2022/12/09 03:43:11;;;;;;;9.02;3.47;;;0.30;99.90;;;;;;5114375;28;20051;-67
2022/12/09 03:45:36;;;;;;;11.82;4.68;;;0.20;99.90;;;;;;5115459;28;20051;-67
2022/12/09 03:48:02;;;;;;;7.75;4.10;;;0.30;99.90;;;;;;5114610;28;20063;-67
2022/12/09 03:50:33;;;;;;;10.73;4.78;;;0.30;99.90;;;;;;5148580;27;20032;-67
2022/12/09 03:53:08;;;;;;;6.72;3.90;;;0.30;99.90;;;;;;5115596;28;20049;-67
2022/12/09 03:55:50;;;;;;;8.20;3.47;;;0.30;99.90;;;;;;5114401;28;20035;-67
2022/12/09 03:58:16;;;;;;;12.07;4.35;;;0.20;99.90;;;;;;5114005;28;20036;-67
2022/12/09 04:00:42;;;;;;;9.93;4.55;;;0.20;99.90;;;;;;5115454;28;20084;-67
2022/12/09 04:03:08;;;;;;;9.48;4.32;;;0.10;99.90;;;;;;5115076;28;20042;-68
2022/12/09 04:05:33;;;;;;;11.13;4.70;;;0.00;99.90;;;;;;5148291;27;20067;-67
2022/12/09 04:07:59;;;;;;;8.93;4.35;;;0.00;99.90;;;;;;5096766;28;20096;-66
2022/12/09 04:10:25;;;;;;;8.77;4.35;;;-0.10;99.90;;;;;;5115010;28;20075;-66
2022/12/09 04:12:50;;;;;;;8.30;4.05;;;-0.10;99.90;;;;;;5113953;28;20046;-66
2022/12/09 04:15:16;;;;;;;9.88;4.38;;;-0.20;99.90;;;;;;5115117;28;20040;-66
2022/12/09 04:17:41;;;;;;;14.07;4.97;;;-0.20;99.90;;;;;;5148182;27;20070;-66
2022/12/09 04:20:07;;;;;;;7.05;3.65;;;-0.20;99.90;;;;;;5114759;28;20055;-66
2022/12/09 04:22:33;;;;;;;9.50;4.65;;;-0.30;99.90;;;;;;5114940;28;20044;-66
2022/12/09 04:24:58;;;;;;;10.57;5.03;;;-0.30;99.90;;;;;;5115034;28;20041;-66
2022/12/09 04:27:24;;;;;;;7.60;4.00;;;-0.30;99.90;;;;;;5114684;28;20036;-66
2022/12/09 04:29:50;;;;;;;8.35;4.70;;;-0.40;99.90;;;;;;5115087;28;20032;-67
2022/12/09 04:32:15;;;;;;;9.73;4.43;;;-0.50;99.90;;;;;;5114968;28;20117;-66
2022/12/09 04:34:41;;;;;;;6.22;3.70;;;-0.50;99.90;;;;;;5147765;27;20491;-67
2022/12/09 04:37:06;;;;;;;10.90;4.15;;;-0.50;99.90;;;;;;5114625;28;20161;-66
2022/12/09 04:39:32;;;;;;;10.32;4.40;;;-0.60;99.90;;;;;;5096141;28;20043;-67
2022/12/09 04:41:58;;;;;;;13.90;4.90;;;-0.70;99.90;;;;;;5114561;27;20431;-66
2022/12/09 04:44:23;;;;;;;8.57;4.50;;;-0.70;99.90;;;;;;5114163;28;20067;-66
2022/12/09 04:46:49;;;;;;;9.05;5.13;;;-0.70;99.90;;;;;;5114458;28;20062;-66
2022/12/09 04:49:14;;;;;;;9.63;4.05;;;-0.70;99.90;;;;;;5114471;28;20076;-66
2022/12/09 04:51:40;;;;;;;9.98;4.40;;;-0.80;99.90;;;;;;5113098;28;20039;-66
2022/12/09 04:54:06;;;;;;;10.75;4.40;;;-0.80;99.90;;;;;;5114149;28;20390;-66
2022/12/09 04:56:32;;;;;;;10.02;5.05;;;-0.80;99.90;;;;;;5114035;28;20043;-66
2022/12/09 04:58:57;;;;;;;8.23;4.13;;;-0.90;99.90;;;;;;5114162;28;20042;-66
2022/12/09 05:01:23;;;;;;;11.10;5.05;;;-0.90;99.90;;;;;;5114304;28;20054;-66
2022/12/09 05:03:53;;;;;;;15.63;5.15;;;-0.90;99.90;;;;;;5112769;28;20495;-66
2022/12/09 05:06:20;;;;;;;7.53;4.68;;;-0.90;99.90;;;;;;5114154;28;20067;-66
2022/12/09 05:08:46;;;;;;;10.98;4.63;;;-1.00;99.90;;;;;;5113737;28;20038;-66
2022/12/09 05:11:13;;;;;;;8.23;4.22;;;-1.00;99.90;;;;;;5112668;28;20039;-65
2022/12/09 05:13:39;;;;;;;16.42;4.70;;;-0.90;99.90;;;;;;5113996;28;20044;-66
2022/12/09 05:16:07;;;;;;;8.63;4.43;;;-0.90;99.90;;;;;;5114008;28;20107;-66
2022/12/09 05:18:33;;;;;;;10.25;5.22;;;-0.80;99.90;;;;;;5113908;28;20059;-66
2022/12/09 05:21:03;;;;;;;11.23;5.35;;;-0.80;99.90;;;;;;5146730;27;20070;-65
2022/12/09 05:23:28;;;;;;;12.85;5.30;;;-0.80;99.90;;;;;;5113831;28;20375;-66
2022/12/09 05:25:55;;;;;;;9.63;5.10;;;-0.80;99.90;;;;;;5113686;28;20088;-65
2022/12/09 05:28:21;;;;;;;6.82;3.88;;;-0.80;99.90;;;;;;5113394;28;20032;-66
2022/12/09 05:30:46;;;;;;;16.45;5.13;;;-0.90;99.90;;;;;;5112517;28;20038;-65
2022/12/09 05:33:12;;;;;;;11.40;5.53;;;-0.90;99.90;;;;;;5113733;28;20036;-66
2022/12/09 05:35:37;;;;;;;11.10;5.00;;;-0.90;99.90;;;;;;5112087;28;20099;-66
2022/12/09 05:38:03;;;;;;;11.30;5.18;;;-0.90;99.90;;;;;;5113335;28;20395;-66
2022/12/09 05:40:29;;;;;;;7.25;3.97;;;-0.90;99.90;;;;;;5146615;27;20105;-65
2022/12/09 05:42:54;;;;;;;11.85;5.53;;;-0.90;99.90;;;;;;5113778;28;20506;-66
2022/12/09 05:45:20;;;;;;;14.25;6.35;;;-0.90;99.90;;;;;;5112214;28;20483;-66
2022/12/09 05:47:45;;;;;;;13.18;4.82;;;-0.90;99.90;;;;;;5113745;28;20096;-66
2022/12/09 05:50:11;;;;;;;10.65;5.85;;;-1.00;99.90;;;;;;5112314;28;20375;-65
2022/12/09 05:52:37;;;;;;;10.02;4.90;;;-0.90;99.90;;;;;;5112512;28;20491;-65
2022/12/09 05:55:04;;;;;;;10.15;5.40;;;-1.00;99.90;;;;;;5113753;28;20049;-66
2022/12/09 05:57:33;;;;;;;10.63;5.15;;;-1.00;99.90;;;;;;5146653;27;20073;-65
2022/12/09 05:59:58;;;;;;;10.02;5.28;;;-1.00;99.90;;;;;;5112159;28;20050;-65
2022/12/09 06:02:24;;;;;;;12.70;5.95;;;-1.00;99.90;;;;;;5113682;28;20043;-65
2022/12/09 06:04:49;;;;;;;12.95;5.00;;;-1.00;99.90;;;;;;5113655;28;20389;-65
2022/12/09 06:07:15;;;;;;;14.02;5.30;;;-1.00;99.90;;;;;;5146350;27;20044;-66
2022/12/09 06:09:40;;;;;;;9.38;4.95;;;-1.10;99.90;;;;;;5112936;28;20118;-65
2022/12/09 06:12:06;;;;;;;9.07;4.40;;;-1.10;99.90;;;;;;5113535;28;20036;-65
2022/12/09 06:14:32;;;;;;;10.70;5.63;;;-1.10;99.90;;;;;;5113546;28;20035;-66
2022/12/09 06:16:57;;;;;;;14.07;5.07;;;-1.20;99.90;;;;;;5113544;28;20426;-65
2022/12/09 06:19:23;;;;;;;12.10;5.55;;;-1.20;99.90;;;;;;5113482;28;20513;-66
2022/12/09 06:21:48;;;;;;;11.38;4.88;;;-1.20;99.90;;;;;;5112167;28;20447;-65
2022/12/09 06:24:14;;;;;;;12.07;5.53;;;-1.20;99.90;;;;;;5113350;28;20043;-66
2022/12/09 06:26:39;;;;;;;11.40;5.00;;;-1.20;99.90;;;;;;5111694;28;20036;-65
2022/12/09 06:29:05;;;;;;;11.43;5.05;;;-1.20;99.90;;;;;;5113357;28;20124;-65
2022/12/09 06:31:30;;;;;;;10.60;5.70;;;-1.20;99.90;;;;;;5113085;28;20035;-68
2022/12/09 06:33:56;;;;;;;9.88;5.45;;;-1.20;99.90;;;;;;5113184;28;20031;-65
2022/12/09 06:36:22;;;;;;;14.95;5.55;;;-1.20;99.90;;;;;;5111791;28;20036;-65
2022/12/09 06:38:48;;;;;;;11.13;5.75;;;-1.20;99.90;;;;;;5113006;28;20040;-65
2022/12/09 06:41:14;;;;;;;17.60;5.32;;;-1.20;99.90;;;;;;5111720;28;20096;-65
2022/12/09 06:43:40;;;;;;;7.07;4.82;;;-1.20;99.90;;;;;;5113061;28;20501;-64
2022/12/09 06:46:17;;;;;;;15.05;5.15;;;-1.30;99.90;;;;;;5112825;28;20035;-65
2022/12/09 06:48:43;;;;;;;12.43;5.88;;;-1.30;99.90;;;;;;5112068;28;20520;-65
2022/12/09 06:51:09;;;;;;;13.52;5.70;;;-1.30;99.90;;;;;;5113183;28;20039;-65
2022/12/09 06:53:34;;;;;;;9.10;4.13;;;-1.20;99.90;;;;;;5112853;28;20399;-64
2022/12/09 06:56:02;;;;;;;9.05;5.28;;;-1.20;99.90;;;;;;5112305;28;20047;-65
2022/12/09 06:58:27;;;;;;;11.80;5.60;;;-1.20;99.90;;;;;;5112023;28;20036;-64
2022/12/09 07:00:53;;;;;;;11.48;5.72;;;-1.20;99.90;;;;;;5112272;28;20039;-65
2022/12/09 07:03:18;;;;;;;17.77;5.68;;;-1.20;99.90;;;;;;5112006;28;20036;-64
2022/12/09 07:05:44;;;;;;;12.30;5.55;;;-1.20;99.90;;;;;;5112185;28;20057;-65
2022/12/09 07:08:09;;;;;;;15.48;6.05;;;-1.20;99.90;;;;;;5112045;28;20066;-64
2022/12/09 07:10:35;;;;;;;15.75;4.93;;;-1.20;99.90;;;;;;5112154;28;20084;-64
2022/12/09 07:13:01;;;;;;;8.60;4.78;;;-1.20;99.90;;;;;;5111875;28;20123;-64
2022/12/09 07:15:27;;;;;;;12.00;5.50;;;-1.20;99.90;;;;;;5112099;28;20119;-67
2022/12/09 07:17:52;;;;;;;10.52;6.10;;;-1.30;99.90;;;;;;5112083;28;20041;-66
2022/12/09 07:20:18;;;;;;;12.45;5.78;;;-1.30;99.90;;;;;;5110376;28;20035;-66
2022/12/09 07:22:43;;;;;;;12.85;6.47;;;-1.30;99.90;;;;;;5112653;28;20403;-65
2022/12/09 07:25:09;;;;;;;11.75;5.82;;;-1.20;99.90;;;;;;5115571;28;20133;-65
2022/12/09 07:27:35;;;;;;;16.98;5.78;;;-1.30;99.90;;;;;;5115270;28;20044;-65
2022/12/09 07:30:01;;;;;;;11.30;5.65;;;-1.30;99.90;;;;;;5115595;27;20032;-65
2022/12/09 07:32:26;;;;;;;14.35;6.18;;;-1.30;99.90;;;;;;5148526;27;20058;-65
2022/12/09 07:34:52;;;;;;;11.32;5.03;;;-1.30;99.90;;;;;;5141265;22;20500;-77
2022/12/09 07:37:18;;;;;;;12.88;7.32;;;-1.30;99.90;;;;;;5047556;23;20044;-77
2022/12/09 07:39:43;;;;;;;10.32;6.38;;;-1.30;99.90;;;;;;5036709;28;20048;-76
2022/12/09 07:42:09;;;;;;;13.45;7.72;;;-1.30;99.90;;;;;;5053661;28;20134;-77
2022/12/09 07:44:34;;;;;;;15.65;7.13;;;-1.30;99.90;;;;;;5053459;28;20032;-76
2022/12/09 07:47:00;;;;;;;13.75;6.97;;;-1.30;99.90;;;;;;5053360;28;20612;-77
2022/12/09 07:49:26;;;;;;;18.58;7.90;;;-1.30;99.90;;;;;;5036787;28;20049;-77
2022/12/09 07:51:51;;;;;;;20.42;7.47;;;-1.30;99.90;;;;;;5053143;28;20040;-77
2022/12/09 07:54:18;;;;;;;9.90;5.43;;;-1.30;99.90;;;;;;5036534;28;20076;-77
2022/12/09 07:56:44;;;;;;;13.15;6.10;;;-1.30;99.90;;;;;;5053240;28;20045;-77
2022/12/09 07:59:12;;;;;;;11.32;5.55;;;-1.40;99.90;;;;;;5053160;28;20404;-76
2022/12/09 08:01:38;;;;;;;11.32;5.88;;;-1.40;99.90;;;;;;5053400;28;20037;-77
2022/12/09 08:04:05;;;;;;;10.52;5.97;;;0.00;99.90;;;;;;5036471;28;20043;-78
2022/12/09 08:06:31;;;;;;;11.93;5.97;;;-1.40;99.90;;;;;;5036640;28;20131;-77
2022/12/09 08:09:04;;;;;;;13.70;6.50;;;-1.40;99.90;;;;;;5036618;28;20077;-78
2022/12/09 08:11:31;;;;;;;11.38;6.40;;;-1.40;99.90;;;;;;5053379;28;20037;-78
2022/12/09 08:13:58;;;;;;;11.02;6.18;;;-1.30;99.90;;;;;;5053591;28;20312;-78
2022/12/09 08:16:25;;;;;;;12.38;6.43;;;-1.30;99.90;;;;;;5053181;28;20090;-77
2022/12/09 08:18:52;;;;;;;10.93;5.43;;;-1.30;99.90;;;;;;5053060;28;20039;-78
2022/12/09 08:21:21;;;;;;;13.95;6.30;;;-1.20;99.90;;;;;;5053314;28;20461;-78
2022/12/09 08:23:47;;;;;;;12.23;6.68;;;-0.50;99.90;;;;;;5053153;28;20040;-78
2022/12/09 08:26:13;;;;;;;12.85;5.63;;;-1.10;99.90;;;;;;5020010;28;20082;-77
2022/12/09 08:28:39;;;;;;;14.57;7.18;;;-1.10;99.90;;;;;;5036743;28;20095;-78
2022/12/09 08:31:07;;;;;;;17.42;6.75;;;-1.00;99.90;;;;;;5053454;28;20080;-77
2022/12/09 08:33:33;;;;;;;13.68;7.32;;;-1.00;99.90;;;;;;5052989;28;20033;-77
2022/12/09 08:36:00;;;;;;;11.13;6.68;;;-0.90;99.90;;;;;;5036057;28;20064;-78
2022/12/09 08:38:26;;;;;;;12.00;6.53;;;-0.90;99.90;;;;;;5052464;28;20208;-74
2022/12/09 08:40:51;;;;;;;17.88;8.02;;;-0.80;99.90;;;;;;5052722;28;20047;-77
2022/12/09 08:43:17;;;;;;;15.52;7.28;;;-0.70;99.90;;;;;;5036365;28;20508;-78
2022/12/09 08:45:42;;;;;;;15.57;5.63;;;-0.70;99.90;;;;;;5036019;28;20040;-77
2022/12/09 08:48:09;;;;;;;14.43;7.13;;;-0.70;99.90;;;;;;5035902;28;20476;-78
2022/12/09 08:50:34;;;;;;;13.93;6.05;;;-0.60;99.90;;;;;;5052634;28;20045;-77
2022/12/09 08:53:00;;;;;;;13.52;6.43;;;-0.50;99.90;;;;;;5035763;28;20041;-78
2022/12/09 08:55:26;;;;;;;11.45;6.25;;;-0.50;99.90;;;;;;5036205;28;20033;-77
2022/12/09 08:57:52;;;;;;;13.60;6.68;;;-0.40;99.90;;;;;;5035517;28;20044;-78
2022/12/09 09:00:18;;;;;;;16.48;6.18;;;-0.30;99.90;;;;;;5052636;28;20032;-77
2022/12/09 09:02:44;;;;;;;13.05;6.57;;;-0.30;99.90;;;;;;5052694;28;20037;-77
2022/12/09 09:05:10;;;;;;;15.32;6.50;;;-0.20;99.90;;;;;;5052617;28;20033;-77
2022/12/09 09:07:36;;;;;;;15.57;7.00;;;-0.20;99.90;;;;;;5036007;28;20089;-77
2022/12/09 09:10:02;;;;;;;18.13;7.38;;;-0.10;99.90;;;;;;5052861;28;20124;-76
2022/12/09 09:12:31;;;;;;;15.93;7.40;;;0.00;99.90;;;;;;5052317;28;20045;-77
2022/12/09 09:14:57;;;;;;;12.93;6.13;;;0.00;99.90;;;;;;5053037;28;20036;-77
2022/12/09 09:17:23;;;;;;;13.10;6.40;;;0.10;99.90;;;;;;5053025;28;20041;-77
2022/12/09 09:19:48;;;;;;;15.38;7.63;;;0.20;99.90;;;;;;5036481;28;20080;-77
2022/12/09 09:22:14;;;;;;;18.13;8.23;;;0.20;99.90;;;;;;5037029;28;20045;-77
2022/12/09 09:24:40;;;;;;;16.75;7.18;;;0.20;99.90;;;;;;5053481;28;20048;-78
2022/12/09 09:27:06;;;;;;;20.65;7.82;;;0.40;99.90;;;;;;5053230;28;20366;-77
2022/12/09 09:29:32;;;;;;;15.52;7.35;;;0.50;99.90;;;;;;5036081;28;20037;-77
2022/12/09 09:31:57;;;;;;;19.08;8.90;;;0.60;99.90;;;;;;5036522;28;20040;-78
2022/12/09 09:34:25;;;;;;;17.52;9.57;;;0.70;99.90;;;;;;5036629;28;20037;-77
2022/12/09 09:36:51;;;;;;;16.63;8.30;;;0.80;99.90;;;;;;5053185;28;20060;-77
2022/12/09 09:39:18;;;;;;;17.65;8.02;;;0.80;99.90;;;;;;5037083;28;20151;-77
2022/12/09 09:41:47;;;;;;;20.88;9.00;;;0.90;99.90;;;;;;5053015;28;20037;-77
2022/12/09 09:44:24;;;;;;;19.92;9.32;;;1.00;99.90;;;;;;5035861;28;20128;-77
2022/12/09 09:46:51;;;;;;;15.32;8.32;;;1.10;99.90;;;;;;5052616;28;20502;-77
2022/12/09 09:49:36;;;;;;;22.10;9.05;;;1.10;99.90;;;;;;5052803;28;20041;-77
2022/12/09 09:52:07;;;;;;;18.45;9.13;;;1.10;99.90;;;;;;5053137;28;20476;-77
2022/12/09 09:54:33;;;;;;;19.45;10.38;;;1.10;99.90;;;;;;5036224;28;20052;-78
2022/12/09 09:57:23;;;;;;;27.55;9.68;;;1.20;99.90;;;;;;5036095;28;20093;-78
2022/12/09 09:59:54;;;;;;;17.65;8.35;;;1.20;99.90;;;;;;5035078;28;20103;-78
2022/12/09 10:02:48;;;;;;;27.45;10.18;;;1.20;99.90;;;;;;5035886;28;20052;-78
2022/12/09 10:05:26;;;;;;;27.42;9.90;;;1.20;99.90;;;;;;5035435;28;20048;-79
2022/12/09 10:08:29;;;;;;;19.85;10.50;;;1.20;99.90;;;;;;5035359;28;20047;-80
2022/12/09 10:11:15;;;;;;;21.52;10.05;;;1.20;99.90;;;;;;5051452;28;20049;-77
2022/12/09 10:13:44;;;;;;;23.25;9.38;;;1.30;99.90;;;;;;5034563;28;20407;-78
2022/12/09 10:16:22;;;;;;;19.38;9.73;;;1.30;99.90;;;;;;5034767;28;20044;-77
2022/12/09 10:19:14;;;;;;;21.63;9.25;;;1.30;99.90;;;;;;5050852;28;20033;-78
2022/12/09 10:21:42;;;;;;;19.10;9.60;;;1.30;99.90;;;;;;5034636;28;20045;-78
2022/12/09 10:24:27;;;;;;;18.42;9.23;;;1.70;99.90;;;;;;5050971;28;20041;-77
2022/12/09 10:27:02;;;;;;;21.90;8.85;;;1.30;99.90;;;;;;5050815;28;20099;-77
2022/12/09 10:30:00;;;;;;;23.52;10.82;;;1.40;99.90;;;;;;5050509;28;20045;-78
2022/12/09 10:32:29;;;;;;;17.10;9.35;;;1.30;99.90;;;;;;5034356;28;20041;-77
2022/12/09 10:34:55;;;;;;;21.33;9.65;;;1.30;99.90;;;;;;5050889;28;20537;-77
2022/12/09 10:37:39;;;;;;;16.63;8.45;;;1.30;99.90;;;;;;5050376;28;20052;-77
2022/12/09 10:40:11;;;;;;;20.65;8.35;;;1.30;99.90;;;;;;5033740;28;20123;-77
2022/12/09 10:45:26;;;;;;;19.92;8.70;;;1.30;99.90;;;;;;5050393;28;20044;-77
2022/12/09 10:47:52;;;;;;;15.73;8.43;;;1.30;99.90;;;;;;5050454;28;20041;-77
2022/12/09 10:50:39;;;;;;;18.50;9.65;;;1.30;99.90;;;;;;5050321;28;20053;-77
2022/12/09 10:53:12;;;;;;;18.60;9.05;;;1.30;99.90;;;;;;5050204;28;20088;-77
2022/12/09 10:55:43;;;;;;;24.08;10.50;;;1.20;99.90;;;;;;5051085;28;20068;-77
2022/12/09 10:58:19;;;;;;;18.50;8.27;;;1.20;99.90;;;;;;5054211;28;20040;-77
2022/12/09 11:01:08;;;;;;;22.83;9.80;;;1.30;99.90;;;;;;5037537;28;20427;-77
2022/12/09 11:03:36;;;;;;;20.75;9.82;;;1.20;99.90;;;;;;5054056;28;20123;-77
2022/12/09 11:06:26;;;;;;;18.77;9.13;;;1.30;99.90;;;;;;5053906;28;20041;-77
2022/12/09 11:08:58;;;;;;;24.48;9.30;;;1.20;99.90;;;;;;5053906;28;20466;-77
2022/12/09 11:11:46;;;;;;;17.83;8.90;;;1.30;99.90;;;;;;5037271;28;20048;-77
2022/12/09 11:14:21;;;;;;;22.52;9.48;;;1.30;99.90;;;;;;5054308;28;20114;-75
2022/12/09 11:17:18;;;;;;;16.30;7.25;;;1.30;99.90;;;;;;5053900;28;20408;-77
2022/12/09 11:19:48;;;;;;;18.52;8.52;;;1.30;99.90;;;;;;5033657;28;20056;-77
2022/12/09 11:22:27;;;;;;;30.50;10.88;;;1.30;99.90;;;;;;5037289;28;20048;-77
2022/12/09 11:24:55;;;;;;;22.23;8.85;;;1.30;99.90;;;;;;5037096;28;20060;-77
2022/12/09 11:27:33;;;;;;;19.98;8.90;;;1.30;99.90;;;;;;5053566;28;20051;-77
2022/12/09 11:30:20;;;;;;;24.00;9.95;;;1.40;99.90;;;;;;5037212;28;20140;-77
2022/12/09 11:33:04;;;;;;;23.80;9.05;;;1.40;99.90;;;;;;5036956;28;20396;-77
2022/12/09 11:35:38;;;;;;;24.92;10.90;;;1.40;99.90;;;;;;5053189;28;20095;-77
2022/12/09 11:38:14;;;;;;;22.55;8.38;;;1.40;99.90;;;;;;5036716;28;20102;-77
2022/12/09 11:40:40;;;;;;;28.20;9.98;;;1.40;99.90;;;;;;5036807;28;20411;-77
2022/12/09 11:43:06;;;;;;;18.63;8.60;;;1.40;99.90;;;;;;5053621;28;20045;-77
2022/12/09 11:45:37;;;;;;;18.50;8.55;;;1.40;99.90;;;;;;5053222;28;20044;-77
2022/12/09 11:48:23;;;;;;;20.35;9.02;;;1.40;99.90;;;;;;5053129;28;20124;-77
2022/12/09 11:50:50;;;;;;;20.77;9.63;;;1.30;99.90;;;;;;5037216;28;20041;-77
2022/12/09 11:53:31;;;;;;;17.75;9.02;;;1.30;99.90;;;;;;5053265;28;20037;-76
2022/12/09 11:56:27;;;;;;;22.83;9.10;;;1.30;99.90;;;;;;5053251;28;20511;-77
2022/12/09 11:59:02;;;;;;;21.00;8.60;;;1.30;99.90;;;;;;5016427;28;20415;-77
2022/12/09 12:01:53;;;;;;;17.55;8.55;;;1.20;99.90;;;;;;5036456;28;20095;-77
2022/12/09 12:04:54;;;;;;;18.10;8.38;;;1.20;99.90;;;;;;5036337;28;20504;-78
2022/12/09 12:07:38;;;;;;;21.50;8.80;;;1.30;99.90;;;;;;5051965;28;20081;-78
2022/12/09 12:10:14;;;;;;;22.35;8.63;;;1.30;99.90;;;;;;5036218;28;20546;-77
2022/12/09 12:13:16;;;;;;;28.90;9.60;;;1.40;99.90;;;;;;5053167;28;20037;-77
2022/12/09 12:15:59;;;;;;;21.85;9.93;;;1.40;99.90;;;;;;5011430;28;20055;-77
2022/12/09 12:18:28;;;;;;;25.83;10.32;;;1.40;99.90;;;;;;5052985;28;20511;-77
2022/12/09 12:21:18;;;;;;;21.30;9.18;;;1.50;99.90;;;;;;5052803;28;20484;-77
2022/12/09 12:24:19;;;;;;;19.42;9.15;;;1.50;99.90;;;;;;5052872;28;20470;-77
2022/12/09 12:27:25;;;;;;;16.88;8.55;;;1.50;99.90;;;;;;5035265;28;20049;-78
2022/12/09 12:30:13;;;;;;;18.63;9.00;;;1.60;99.90;;;;;;5004625;28;20515;-77
2022/12/09 12:32:55;;;;;;;20.23;9.32;;;1.60;99.90;;;;;;5036246;28;20095;-76
2022/12/09 12:36:02;;;;;;;23.20;9.35;;;1.60;99.90;;;;;;5036104;28;20052;-76
2022/12/09 12:38:49;;;;;;;24.98;9.70;;;1.60;99.90;;;;;;5052773;28;20053;-76
2022/12/09 12:41:36;;;;;;;22.52;9.13;;;1.60;99.90;;;;;;5035843;28;20055;-77
2022/12/09 12:47:38;;;;;;;22.00;8.98;;;1.60;99.90;;;;;;5052144;28;20044;-77
2022/12/09 12:50:26;;;;;;;20.23;8.90;;;2.00;99.90;;;;;;5035630;28;20056;-78
2022/12/09 12:53:10;;;;;;;18.40;7.88;;;1.60;99.90;;;;;;5035770;28;20037;-78
2022/12/09 12:55:42;;;;;;;20.70;9.30;;;1.50;99.90;;;;;;5035524;28;20076;-78
2022/12/09 12:58:39;;;;;;;18.35;7.75;;;1.50;99.90;;;;;;5051991;28;20128;-77
2022/12/09 13:01:13;;;;;;;17.10;8.48;;;1.50;99.90;;;;;;5035064;28;20103;-77
2022/12/09 13:04:06;;;;;;;23.88;10.10;;;1.40;99.90;;;;;;5035473;28;20056;-77
2022/12/09 13:07:06;;;;;;;24.05;9.32;;;1.40;99.90;;;;;;5034999;28;20064;-77
2022/12/09 13:09:34;;;;;;;18.15;8.65;;;1.40;99.90;;;;;;5051114;28;20492;-79
2022/12/09 13:12:03;;;;;;;20.92;8.07;;;1.40;99.90;;;;;;5035031;28;20442;-76
2022/12/09 13:14:35;;;;;;;15.90;7.90;;;1.50;99.90;;;;;;5051561;28;20087;-78
2022/12/09 13:17:05;;;;;;;18.75;7.93;;;1.50;99.90;;;;;;5051418;28;20083;-77
2022/12/09 13:19:40;;;;;;;13.55;7.22;;;2.10;99.90;;;;;;5034810;28;20450;-78
2022/12/09 13:22:15;;;;;;;18.15;7.82;;;1.50;99.90;;;;;;5034853;28;20459;-78